This demonstration page uses our WeatherBlox Daily Observations layout. Learn more.

Hourly Observations for July 10, 2017

Temp ( °F °C ) Dew Point ( °F °C ) Humidity (%) Winds ( mph kmh ) Pressure ( in mb ) Visibility ( mi km ) Precip ( " mm )
12:54 am 00:54 Clear 82 27.8 66 18.9 58 58 SW 7 11 29.75 1008 10 16.0934 0 0
1:54 am 01:54 Clear 80 26.7 66 18.9 62 62 SSW 7 11 29.75 1008 10 16.0934 0 0
2:54 am 02:54 Clear 80 26.7 65 18.3 60 60 SSW 10 17 29.75 1008 10 16.0934 0 0
3:54 am 03:54 Clear 80 26.7 65 18.3 60 60 SW 13 20 29.75 1008 10 16.0934 0 0
4:54 am 04:54 Clear 80 26.7 65 18.3 60 60 SW 13 20 29.75 1008 10 16.0934 0 0
5:54 am 05:54 Clear 77 25 66 18.9 69 69 SW 9 15 29.76 1008 10 16.0934 0 0
6:54 am 06:54 Sunny 78 25.6 66 18.9 67 67 SW 14 22 29.75 1008 10 16.0934 0 0
7:54 am 07:54 Sunny 79 26.1 66 18.9 65 65 WSW 9 15 29.78 1008 10 16.0934 0 0
8:54 am 08:54 Sunny 82 27.8 67 19.4 60 60 W 8 13 29.78 1009 10 16.0934 0 0
9:54 am 09:54 Sunny 84 28.9 68 20 59 59 WNW 7 11 29.8 1009 10 16.0934 0 0
10:54 am 10:54 Sunny 84 28.9 68 20 59 59 NNW 6 9 29.8 1009 10 16.0934 0 0
11:54 am 11:54 Sunny 86 30 70 21.1 59 59 SW 5 7 29.8 1009 10 16.0934 0 0
12:54 pm 12:54 Sunny 90 32.2 70 21.1 52 52 Calm 29.8 1009 10 16.0934 0 0
1:54 pm 13:54 Sunny 91 32.8 73 22.8 56 56 VRB 6 9 29.8 1009 10 16.0934 0 0
2:54 pm 14:54 Sunny 92 33.3 76 24.4 60 60 NE 8 13 29.8 1009 10 16.0934 0 0
3:54 pm 15:54 Sunny 92 33.3 73 22.8 54 54 NE 8 13 29.8 1009 10 16.0934 0 0
4:54 pm 16:54 Sunny 92 33.3 74 23.3 56 56 NNE 9 15 29.8 1009 10 16.0934 0 0
5:54 pm 17:54 Sunny 91 32.8 74 23.3 57 57 NE 10 17 29.8 1009 10 16.0934 0 0
6:54 pm 18:54 Sunny 90 32.2 74 23.3 59 59 E 7 11 29.78 1008 10 16.0934 0 0
7:54 pm 19:54 Sunny 87 30.6 74 23.3 65 65 ENE 7 11 29.77 1008 10 16.0934 0 0
8:54 pm 20:54 Sunny 84 28.9 74 23.3 72 72 NE 8 13 29.79 1009 10 16.0934 0 0
9:54 pm 21:54 Clear 82 27.8 72 22.2 72 72 NE 9 15 29.81 1009 10 16.0934 0 0
10:54 pm 22:54 Clear 80 26.7 73 22.8 79 79 NE 5 7 29.8 1009 10 16.0934 0 0
11:54 pm 23:54 Clear 80 26.7 74 23.3 82 82 E 3 6 29.78 1009 10 16.0934 0 0

Powered by AerisWeather